sensor_id;sensor_type;location;lat;lon;timestamp;temperature;humidity
6293;DHT22;3179;54.350;10.102;2023-09-12T00:00:22;22.70;99.90
6293;DHT22;3179;54.350;10.102;2023-09-12T00:02:49;22.70;99.90
6293;DHT22;3179;54.350;10.102;2023-09-12T00:05:16;22.70;99.90
6293;DHT22;3179;54.350;10.102;2023-09-12T00:07:43;22.70;99.90
6293;DHT22;3179;54.350;10.102;2023-09-12T00:10:10;22.70;99.90
6293;DHT22;3179;54.350;10.102;2023-09-12T00:12:36;22.70;99.90
6293;DHT22;3179;54.350;10.102;2023-09-12T00:15:05;22.70;99.90
6293;DHT22;3179;54.350;10.102;2023-09-12T00:17:33;22.70;99.90
6293;DHT22;3179;54.350;10.102;2023-09-12T00:20:00;22.70;99.90
6293;DHT22;3179;54.350;10.102;2023-09-12T00:22:26;22.70;99.90
6293;DHT22;3179;54.350;10.102;2023-09-12T00:24:53;22.70;99.90
6293;DHT22;3179;54.350;10.102;2023-09-12T00:27:20;22.70;99.90
6293;DHT22;3179;54.350;10.102;2023-09-12T00:29:47;22.70;99.90
6293;DHT22;3179;54.350;10.102;2023-09-12T00:32:15;22.70;99.90
6293;DHT22;3179;54.350;10.102;2023-09-12T00:34:42;22.60;99.90
6293;DHT22;3179;54.350;10.102;2023-09-12T00:37:08;22.70;99.90
6293;DHT22;3179;54.350;10.102;2023-09-12T00:39:35;22.70;99.90
6293;DHT22;3179;54.350;10.102;2023-09-12T00:42:02;22.60;99.90
6293;DHT22;3179;54.350;10.102;2023-09-12T00:44:30;22.60;99.90
6293;DHT22;3179;54.350;10.102;2023-09-12T00:46:57;22.60;99.90
6293;DHT22;3179;54.350;10.102;2023-09-12T00:49:27;22.60;99.90
6293;DHT22;3179;54.350;10.102;2023-09-12T00:51:55;22.60;99.90
6293;DHT22;3179;54.350;10.102;2023-09-12T00:54:23;22.60;99.90
6293;DHT22;3179;54.350;10.102;2023-09-12T00:56:49;22.60;99.90
6293;DHT22;3179;54.350;10.102;2023-09-12T00:59:17;22.60;99.90
6293;DHT22;3179;54.350;10.102;2023-09-12T01:01:44;22.60;99.90
6293;DHT22;3179;54.350;10.102;2023-09-12T01:04:12;22.60;99.90
6293;DHT22;3179;54.350;10.102;2023-09-12T01:06:40;22.60;99.90
6293;DHT22;3179;54.350;10.102;2023-09-12T01:09:06;22.60;99.90
6293;DHT22;3179;54.350;10.102;2023-09-12T01:11:34;22.60;99.90
6293;DHT22;3179;54.350;10.102;2023-09-12T01:14:01;22.60;99.90
6293;DHT22;3179;54.350;10.102;2023-09-12T01:16:28;22.60;99.90
6293;DHT22;3179;54.350;10.102;2023-09-12T01:18:55;22.60;99.90
6293;DHT22;3179;54.350;10.102;2023-09-12T01:24:38;22.60;99.90
6293;DHT22;3179;54.350;10.102;2023-09-12T01:27:19;22.60;99.90
6293;DHT22;3179;54.350;10.102;2023-09-12T01:29:50;22.60;99.90
6293;DHT22;3179;54.350;10.102;2023-09-12T01:32:18;22.60;99.90
6293;DHT22;3179;54.350;10.102;2023-09-12T01:34:46;22.60;99.90
6293;DHT22;3179;54.350;10.102;2023-09-12T01:37:13;22.50;99.90
6293;DHT22;3179;54.350;10.102;2023-09-12T01:39:40;22.50;99.90
6293;DHT22;3179;54.350;10.102;2023-09-12T01:42:09;22.50;99.90
6293;DHT22;3179;54.350;10.102;2023-09-12T01:44:40;22.50;99.90
6293;DHT22;3179;54.350;10.102;2023-09-12T01:47:08;22.50;99.90
6293;DHT22;3179;54.350;10.102;2023-09-12T01:49:36;22.50;99.90
6293;DHT22;3179;54.350;10.102;2023-09-12T01:52:04;22.50;99.90
6293;DHT22;3179;54.350;10.102;2023-09-12T01:54:32;22.50;99.90
6293;DHT22;3179;54.350;10.102;2023-09-12T01:56:59;22.50;99.90
6293;DHT22;3179;54.350;10.102;2023-09-12T01:59:26;22.50;99.90
6293;DHT22;3179;54.350;10.102;2023-09-12T02:01:55;22.50;99.90
6293;DHT22;3179;54.350;10.102;2023-09-12T02:04:22;22.50;99.90
6293;DHT22;3179;54.350;10.102;2023-09-12T02:06:49;22.50;99.90
6293;DHT22;3179;54.350;10.102;2023-09-12T02:09:16;22.50;99.90
6293;DHT22;3179;54.350;10.102;2023-09-12T02:11:42;22.50;99.90
6293;DHT22;3179;54.350;10.102;2023-09-12T02:14:09;22.50;99.90
6293;DHT22;3179;54.350;10.102;2023-09-12T02:16:37;22.50;99.90
6293;DHT22;3179;54.350;10.102;2023-09-12T02:19:05;22.50;99.90
6293;DHT22;3179;54.350;10.102;2023-09-12T02:21:32;22.50;99.90
6293;DHT22;3179;54.350;10.102;2023-09-12T02:23:59;22.50;99.90
6293;DHT22;3179;54.350;10.102;2023-09-12T02:26:25;22.40;99.90
6293;DHT22;3179;54.350;10.102;2023-09-12T02:28:52;22.40;99.90
6293;DHT22;3179;54.350;10.102;2023-09-12T02:31:19;22.40;99.90
6293;DHT22;3179;54.350;10.102;2023-09-12T02:33:46;22.40;99.90
6293;DHT22;3179;54.350;10.102;2023-09-12T02:36:14;22.40;99.90
6293;DHT22;3179;54.350;10.102;2023-09-12T02:38:41;22.40;99.90
6293;DHT22;3179;54.350;10.102;2023-09-12T02:41:08;22.40;99.90
6293;DHT22;3179;54.350;10.102;2023-09-12T02:43:35;22.40;99.90
6293;DHT22;3179;54.350;10.102;2023-09-12T02:46:01;22.40;99.90
6293;DHT22;3179;54.350;10.102;2023-09-12T02:48:28;22.40;99.90
6293;DHT22;3179;54.350;10.102;2023-09-12T02:50:55;22.40;99.90
6293;DHT22;3179;54.350;10.102;2023-09-12T02:53:23;22.40;99.90
6293;DHT22;3179;54.350;10.102;2023-09-12T02:55:51;22.40;99.90
6293;DHT22;3179;54.350;10.102;2023-09-12T02:58:18;22.30;99.90
6293;DHT22;3179;54.350;10.102;2023-09-12T03:00:45;22.30;99.90
6293;DHT22;3179;54.350;10.102;2023-09-12T03:03:11;22.30;99.90
6293;DHT22;3179;54.350;10.102;2023-09-12T03:05:38;22.30;99.90
6293;DHT22;3179;54.350;10.102;2023-09-12T03:08:05;22.30;99.90
6293;DHT22;3179;54.350;10.102;2023-09-12T03:10:33;22.30;99.90
6293;DHT22;3179;54.350;10.102;2023-09-12T03:13:00;22.30;99.90
6293;DHT22;3179;54.350;10.102;2023-09-12T03:15:27;22.30;99.90
6293;DHT22;3179;54.350;10.102;2023-09-12T03:17:53;22.30;99.90
6293;DHT22;3179;54.350;10.102;2023-09-12T03:20:20;22.30;99.90
6293;DHT22;3179;54.350;10.102;2023-09-12T03:22:47;22.20;99.90
6293;DHT22;3179;54.350;10.102;2023-09-12T03:25:14;22.20;99.90
6293;DHT22;3179;54.350;10.102;2023-09-12T03:27:42;22.20;99.90
6293;DHT22;3179;54.350;10.102;2023-09-12T03:30:09;22.20;99.90
6293;DHT22;3179;54.350;10.102;2023-09-12T03:32:36;22.20;99.90
6293;DHT22;3179;54.350;10.102;2023-09-12T03:35:04;22.20;99.90
6293;DHT22;3179;54.350;10.102;2023-09-12T03:37:31;22.20;99.90
6293;DHT22;3179;54.350;10.102;2023-09-12T03:39:57;22.20;99.90
6293;DHT22;3179;54.350;10.102;2023-09-12T03:42:24;22.20;99.90
6293;DHT22;3179;54.350;10.102;2023-09-12T03:44:52;22.20;99.90
6293;DHT22;3179;54.350;10.102;2023-09-12T03:47:19;22.20;99.90
6293;DHT22;3179;54.350;10.102;2023-09-12T03:49:46;22.20;99.90
6293;DHT22;3179;54.350;10.102;2023-09-12T03:52:12;22.20;99.90
6293;DHT22;3179;54.350;10.102;2023-09-12T03:54:39;22.20;99.90
6293;DHT22;3179;54.350;10.102;2023-09-12T03:57:06;22.10;99.90
6293;DHT22;3179;54.350;10.102;2023-09-12T03:59:33;22.10;99.90
6293;DHT22;3179;54.350;10.102;2023-09-12T04:02:01;22.10;99.90
6293;DHT22;3179;54.350;10.102;2023-09-12T04:04:28;22.10;99.90
6293;DHT22;3179;54.350;10.102;2023-09-12T04:06:55;22.10;99.90
6293;DHT22;3179;54.350;10.102;2023-09-12T04:09:21;22.10;99.90
6293;DHT22;3179;54.350;10.102;2023-09-12T04:11:48;22.10;99.90
6293;DHT22;3179;54.350;10.102;2023-09-12T04:14:15;22.10;99.90
6293;DHT22;3179;54.350;10.102;2023-09-12T04:16:42;22.00;99.90
6293;DHT22;3179;54.350;10.102;2023-09-12T04:19:10;22.00;99.90
6293;DHT22;3179;54.350;10.102;2023-09-12T04:21:36;22.00;99.90
6293;DHT22;3179;54.350;10.102;2023-09-12T04:24:04;22.00;99.90
6293;DHT22;3179;54.350;10.102;2023-09-12T04:26:31;22.00;99.90
6293;DHT22;3179;54.350;10.102;2023-09-12T04:28:58;22.00;99.90
6293;DHT22;3179;54.350;10.102;2023-09-12T04:31:24;22.00;99.90
6293;DHT22;3179;54.350;10.102;2023-09-12T04:33:51;22.00;99.90
6293;DHT22;3179;54.350;10.102;2023-09-12T04:36:20;22.00;99.90
6293;DHT22;3179;54.350;10.102;2023-09-12T04:38:47;22.00;99.90
6293;DHT22;3179;54.350;10.102;2023-09-12T04:41:13;21.90;99.90
6293;DHT22;3179;54.350;10.102;2023-09-12T04:43:42;21.90;99.90
6293;DHT22;3179;54.350;10.102;2023-09-12T04:46:09;21.90;99.90
6293;DHT22;3179;54.350;10.102;2023-09-12T04:48:36;21.90;99.90
6293;DHT22;3179;54.350;10.102;2023-09-12T04:51:03;22.00;99.90
6293;DHT22;3179;54.350;10.102;2023-09-12T04:53:31;22.00;99.90
6293;DHT22;3179;54.350;10.102;2023-09-12T04:56:00;22.00;99.90
6293;DHT22;3179;54.350;10.102;2023-09-12T04:58:27;21.90;99.90
6293;DHT22;3179;54.350;10.102;2023-09-12T05:00:54;21.90;99.90
6293;DHT22;3179;54.350;10.102;2023-09-12T05:03:21;21.90;99.90
6293;DHT22;3179;54.350;10.102;2023-09-12T05:05:48;21.90;99.90
6293;DHT22;3179;54.350;10.102;2023-09-12T05:08:15;21.90;99.90
6293;DHT22;3179;54.350;10.102;2023-09-12T05:10:45;21.90;99.90
6293;DHT22;3179;54.350;10.102;2023-09-12T05:13:12;21.90;99.90
6293;DHT22;3179;54.350;10.102;2023-09-12T05:15:41;21.90;99.90
6293;DHT22;3179;54.350;10.102;2023-09-12T05:18:07;21.90;99.90
6293;DHT22;3179;54.350;10.102;2023-09-12T05:20:34;21.90;99.90
6293;DHT22;3179;54.350;10.102;2023-09-12T05:23:01;21.90;99.90
6293;DHT22;3179;54.350;10.102;2023-09-12T05:25:28;21.90;99.90
6293;DHT22;3179;54.350;10.102;2023-09-12T05:27:56;21.90;99.90
6293;DHT22;3179;54.350;10.102;2023-09-12T05:30:23;21.90;99.90
6293;DHT22;3179;54.350;10.102;2023-09-12T05:32:50;21.80;99.90
6293;DHT22;3179;54.350;10.102;2023-09-12T05:35:17;21.90;99.90
6293;DHT22;3179;54.350;10.102;2023-09-12T05:37:44;21.90;99.90
6293;DHT22;3179;54.350;10.102;2023-09-12T05:40:10;21.90;99.90
6293;DHT22;3179;54.350;10.102;2023-09-12T05:42:37;21.90;99.90
6293;DHT22;3179;54.350;10.102;2023-09-12T05:45:06;21.90;99.90
6293;DHT22;3179;54.350;10.102;2023-09-12T05:47:33;21.90;99.90
6293;DHT22;3179;54.350;10.102;2023-09-12T05:50:00;21.80;99.90
6293;DHT22;3179;54.350;10.102;2023-09-12T05:52:31;21.90;99.90
6293;DHT22;3179;54.350;10.102;2023-09-12T05:54:57;21.90;99.90
6293;DHT22;3179;54.350;10.102;2023-09-12T05:57:24;21.90;99.90
6293;DHT22;3179;54.350;10.102;2023-09-12T05:59:51;21.90;99.90
6293;DHT22;3179;54.350;10.102;2023-09-12T06:02:20;21.90;99.90
6293;DHT22;3179;54.350;10.102;2023-09-12T06:04:46;22.00;99.90
6293;DHT22;3179;54.350;10.102;2023-09-12T06:07:13;22.00;99.90
6293;DHT22;3179;54.350;10.102;2023-09-12T06:09:40;22.00;99.90
6293;DHT22;3179;54.350;10.102;2023-09-12T06:12:07;22.00;99.90
6293;DHT22;3179;54.350;10.102;2023-09-12T06:14:34;22.00;99.90
6293;DHT22;3179;54.350;10.102;2023-09-12T06:17:00;22.00;99.90
6293;DHT22;3179;54.350;10.102;2023-09-12T06:19:28;22.00;99.90
6293;DHT22;3179;54.350;10.102;2023-09-12T06:21:56;22.00;99.90
6293;DHT22;3179;54.350;10.102;2023-09-12T06:24:23;22.00;99.90
6293;DHT22;3179;54.350;10.102;2023-09-12T06:26:50;22.00;99.90
6293;DHT22;3179;54.350;10.102;2023-09-12T06:29:18;22.00;99.90
6293;DHT22;3179;54.350;10.102;2023-09-12T06:31:43;22.10;99.90
6293;DHT22;3179;54.350;10.102;2023-09-12T06:34:10;22.10;99.90
6293;DHT22;3179;54.350;10.102;2023-09-12T06:36:39;22.10;99.90
6293;DHT22;3179;54.350;10.102;2023-09-12T06:39:07;22.20;99.90
6293;DHT22;3179;54.350;10.102;2023-09-12T06:41:33;22.20;99.90
6293;DHT22;3179;54.350;10.102;2023-09-12T06:44:00;22.20;99.90
6293;DHT22;3179;54.350;10.102;2023-09-12T06:46:28;22.20;99.90
6293;DHT22;3179;54.350;10.102;2023-09-12T06:48:55;22.20;99.90
6293;DHT22;3179;54.350;10.102;2023-09-12T06:51:24;22.30;99.90
6293;DHT22;3179;54.350;10.102;2023-09-12T06:53:53;22.30;99.90
6293;DHT22;3179;54.350;10.102;2023-09-12T06:56:20;22.30;99.90
6293;DHT22;3179;54.350;10.102;2023-09-12T06:58:47;22.30;99.90
6293;DHT22;3179;54.350;10.102;2023-09-12T07:01:13;22.30;99.90
6293;DHT22;3179;54.350;10.102;2023-09-12T07:03:40;22.40;99.90
6293;DHT22;3179;54.350;10.102;2023-09-12T07:06:07;22.40;99.90
6293;DHT22;3179;54.350;10.102;2023-09-12T07:08:35;22.40;99.90
6293;DHT22;3179;54.350;10.102;2023-09-12T07:11:04;22.40;99.90
6293;DHT22;3179;54.350;10.102;2023-09-12T07:13:32;22.40;99.90
6293;DHT22;3179;54.350;10.102;2023-09-12T07:15:59;22.40;99.90
6293;DHT22;3179;54.350;10.102;2023-09-12T07:18:29;22.40;99.90
6293;DHT22;3179;54.350;10.102;2023-09-12T07:20:59;22.50;99.90
6293;DHT22;3179;54.350;10.102;2023-09-12T07:23:32;22.50;99.90
6293;DHT22;3179;54.350;10.102;2023-09-12T07:26:00;22.50;99.90
6293;DHT22;3179;54.350;10.102;2023-09-12T07:28:30;22.50;99.90
6293;DHT22;3179;54.350;10.102;2023-09-12T07:30:57;22.50;99.90
6293;DHT22;3179;54.350;10.102;2023-09-12T07:33:24;22.50;99.90
6293;DHT22;3179;54.350;10.102;2023-09-12T07:35:52;22.50;99.90
6293;DHT22;3179;54.350;10.102;2023-09-12T07:38:19;22.40;99.90
6293;DHT22;3179;54.350;10.102;2023-09-12T07:40:46;22.50;99.90
6293;DHT22;3179;54.350;10.102;2023-09-12T07:43:13;22.50;99.90
6293;DHT22;3179;54.350;10.102;2023-09-12T07:45:41;22.50;99.90
6293;DHT22;3179;54.350;10.102;2023-09-12T07:48:08;22.60;99.90
6293;DHT22;3179;54.350;10.102;2023-09-12T07:50:36;22.60;99.90
6293;DHT22;3179;54.350;10.102;2023-09-12T07:53:04;22.60;99.90
6293;DHT22;3179;54.350;10.102;2023-09-12T07:55:31;22.60;99.90
6293;DHT22;3179;54.350;10.102;2023-09-12T07:58:01;22.60;99.90
6293;DHT22;3179;54.350;10.102;2023-09-12T08:00:28;22.70;99.90
6293;DHT22;3179;54.350;10.102;2023-09-12T08:02:56;22.70;99.90
6293;DHT22;3179;54.350;10.102;2023-09-12T08:05:23;22.70;99.90
6293;DHT22;3179;54.350;10.102;2023-09-12T08:07:50;22.70;99.90
6293;DHT22;3179;54.350;10.102;2023-09-12T08:10:16;22.70;99.90
6293;DHT22;3179;54.350;10.102;2023-09-12T08:12:43;22.80;99.90
6293;DHT22;3179;54.350;10.102;2023-09-12T08:15:10;22.80;99.90
6293;DHT22;3179;54.350;10.102;2023-09-12T08:17:37;22.80;99.90
6293;DHT22;3179;54.350;10.102;2023-09-12T08:20:07;22.90;99.90
6293;DHT22;3179;54.350;10.102;2023-09-12T08:22:35;22.90;99.90
6293;DHT22;3179;54.350;10.102;2023-09-12T08:25:03;22.90;99.90
6293;DHT22;3179;54.350;10.102;2023-09-12T08:27:30;22.90;99.90
6293;DHT22;3179;54.350;10.102;2023-09-12T08:29:56;23.00;99.90
6293;DHT22;3179;54.350;10.102;2023-09-12T08:32:23;23.00;99.90
6293;DHT22;3179;54.350;10.102;2023-09-12T08:34:50;23.00;99.90
6293;DHT22;3179;54.350;10.102;2023-09-12T08:37:18;23.00;99.90
6293;DHT22;3179;54.350;10.102;2023-09-12T08:39:45;23.00;99.90
6293;DHT22;3179;54.350;10.102;2023-09-12T08:42:13;23.00;99.90
6293;DHT22;3179;54.350;10.102;2023-09-12T08:44:40;23.00;99.90
6293;DHT22;3179;54.350;10.102;2023-09-12T08:47:08;23.00;99.90
6293;DHT22;3179;54.350;10.102;2023-09-12T08:49:36;23.00;99.90
6293;DHT22;3179;54.350;10.102;2023-09-12T08:52:04;23.00;99.90
6293;DHT22;3179;54.350;10.102;2023-09-12T08:54:32;23.20;99.90
6293;DHT22;3179;54.350;10.102;2023-09-12T08:57:01;23.20;99.90
6293;DHT22;3179;54.350;10.102;2023-09-12T08:59:29;23.30;99.90
6293;DHT22;3179;54.350;10.102;2023-09-12T09:01:56;23.30;99.90
6293;DHT22;3179;54.350;10.102;2023-09-12T09:04:23;23.40;99.90
6293;DHT22;3179;54.350;10.102;2023-09-12T09:06:52;23.40;99.90
6293;DHT22;3179;54.350;10.102;2023-09-12T09:09:21;23.40;99.90
6293;DHT22;3179;54.350;10.102;2023-09-12T09:11:50;23.50;99.90
6293;DHT22;3179;54.350;10.102;2023-09-12T09:14:17;23.50;99.90
6293;DHT22;3179;54.350;10.102;2023-09-12T09:16:44;23.50;99.90
6293;DHT22;3179;54.350;10.102;2023-09-12T09:19:11;23.50;99.90
6293;DHT22;3179;54.350;10.102;2023-09-12T09:21:39;23.50;99.90
6293;DHT22;3179;54.350;10.102;2023-09-12T09:24:07;23.60;99.90
6293;DHT22;3179;54.350;10.102;2023-09-12T09:26:45;23.60;99.90
6293;DHT22;3179;54.350;10.102;2023-09-12T09:29:16;23.70;99.90
6293;DHT22;3179;54.350;10.102;2023-09-12T09:31:44;23.80;99.90
6293;DHT22;3179;54.350;10.102;2023-09-12T09:34:12;23.90;99.90
6293;DHT22;3179;54.350;10.102;2023-09-12T09:36:41;24.00;99.90
6293;DHT22;3179;54.350;10.102;2023-09-12T09:39:09;24.00;99.90
6293;DHT22;3179;54.350;10.102;2023-09-12T09:41:36;24.10;99.90
6293;DHT22;3179;54.350;10.102;2023-09-12T09:44:04;24.20;99.90
6293;DHT22;3179;54.350;10.102;2023-09-12T09:46:33;24.20;99.90
6293;DHT22;3179;54.350;10.102;2023-09-12T09:48:59;24.20;99.90
6293;DHT22;3179;54.350;10.102;2023-09-12T09:51:27;24.30;99.90
6293;DHT22;3179;54.350;10.102;2023-09-12T09:53:55;24.40;99.90
6293;DHT22;3179;54.350;10.102;2023-09-12T09:56:24;24.40;99.90
6293;DHT22;3179;54.350;10.102;2023-09-12T09:58:53;24.40;99.90
6293;DHT22;3179;54.350;10.102;2023-09-12T10:01:21;24.30;99.90
6293;DHT22;3179;54.350;10.102;2023-09-12T10:03:51;24.30;99.90
6293;DHT22;3179;54.350;10.102;2023-09-12T10:06:20;24.30;99.90
6293;DHT22;3179;54.350;10.102;2023-09-12T10:08:51;24.20;99.90
6293;DHT22;3179;54.350;10.102;2023-09-12T10:11:20;24.20;99.90
6293;DHT22;3179;54.350;10.102;2023-09-12T10:13:52;24.30;99.90
6293;DHT22;3179;54.350;10.102;2023-09-12T10:16:21;24.30;99.90
6293;DHT22;3179;54.350;10.102;2023-09-12T10:18:57;24.30;99.90
6293;DHT22;3179;54.350;10.102;2023-09-12T10:21:29;24.40;99.90
6293;DHT22;3179;54.350;10.102;2023-09-12T10:23:58;24.30;99.90
6293;DHT22;3179;54.350;10.102;2023-09-12T10:26:25;24.30;99.90
6293;DHT22;3179;54.350;10.102;2023-09-12T10:28:54;24.30;99.90
6293;DHT22;3179;54.350;10.102;2023-09-12T10:31:22;24.20;99.90
6293;DHT22;3179;54.350;10.102;2023-09-12T10:33:51;24.20;99.90
6293;DHT22;3179;54.350;10.102;2023-09-12T10:36:19;24.20;99.90
6293;DHT22;3179;54.350;10.102;2023-09-12T10:38:48;24.30;99.90
6293;DHT22;3179;54.350;10.102;2023-09-12T10:41:16;24.40;99.90
6293;DHT22;3179;54.350;10.102;2023-09-12T10:43:44;24.40;99.90
6293;DHT22;3179;54.350;10.102;2023-09-12T10:46:15;24.30;99.90
6293;DHT22;3179;54.350;10.102;2023-09-12T10:48:42;24.30;99.90
6293;DHT22;3179;54.350;10.102;2023-09-12T10:51:11;24.20;99.90
6293;DHT22;3179;54.350;10.102;2023-09-12T10:53:40;24.20;99.90
6293;DHT22;3179;54.350;10.102;2023-09-12T10:56:17;24.20;99.90
6293;DHT22;3179;54.350;10.102;2023-09-12T10:59:09;24.20;99.90
6293;DHT22;3179;54.350;10.102;2023-09-12T11:01:38;24.20;99.90
6293;DHT22;3179;54.350;10.102;2023-09-12T11:04:29;24.30;99.90
6293;DHT22;3179;54.350;10.102;2023-09-12T11:07:00;24.30;99.90
6293;DHT22;3179;54.350;10.102;2023-09-12T11:09:27;24.40;99.90
6293;DHT22;3179;54.350;10.102;2023-09-12T11:11:57;24.50;99.90
6293;DHT22;3179;54.350;10.102;2023-09-12T11:14:24;24.50;99.90
6293;DHT22;3179;54.350;10.102;2023-09-12T11:17:20;24.60;99.90
6293;DHT22;3179;54.350;10.102;2023-09-12T11:19:48;24.60;99.90
6293;DHT22;3179;54.350;10.102;2023-09-12T11:22:23;24.60;99.90
6293;DHT22;3179;54.350;10.102;2023-09-12T11:24:50;24.60;99.90
6293;DHT22;3179;54.350;10.102;2023-09-12T11:27:17;24.70;99.90
6293;DHT22;3179;54.350;10.102;2023-09-12T11:29:45;24.70;99.90
6293;DHT22;3179;54.350;10.102;2023-09-12T11:32:25;24.60;99.90
6293;DHT22;3179;54.350;10.102;2023-09-12T11:34:52;24.70;99.90
6293;DHT22;3179;54.350;10.102;2023-09-12T11:37:24;24.70;99.90
6293;DHT22;3179;54.350;10.102;2023-09-12T11:39:51;24.70;99.90
6293;DHT22;3179;54.350;10.102;2023-09-12T11:42:19;24.80;99.90
6293;DHT22;3179;54.350;10.102;2023-09-12T11:44:48;24.80;99.90
6293;DHT22;3179;54.350;10.102;2023-09-12T11:47:16;24.80;99.90
6293;DHT22;3179;54.350;10.102;2023-09-12T11:49:43;24.90;99.90
6293;DHT22;3179;54.350;10.102;2023-09-12T11:52:11;24.90;99.90
6293;DHT22;3179;54.350;10.102;2023-09-12T11:54:40;25.00;99.90
6293;DHT22;3179;54.350;10.102;2023-09-12T11:57:08;25.00;99.90
6293;DHT22;3179;54.350;10.102;2023-09-12T11:59:37;25.00;99.90
6293;DHT22;3179;54.350;10.102;2023-09-12T12:02:06;25.00;99.90
6293;DHT22;3179;54.350;10.102;2023-09-12T12:04:33;24.90;99.90
6293;DHT22;3179;54.350;10.102;2023-09-12T12:07:01;24.90;99.90
6293;DHT22;3179;54.350;10.102;2023-09-12T12:09:28;24.80;99.90
6293;DHT22;3179;54.350;10.102;2023-09-12T12:11:56;24.70;99.90
6293;DHT22;3179;54.350;10.102;2023-09-12T12:14:26;24.70;99.90
6293;DHT22;3179;54.350;10.102;2023-09-12T12:16:53;24.70;99.90
6293;DHT22;3179;54.350;10.102;2023-09-12T12:19:20;24.60;99.90
6293;DHT22;3179;54.350;10.102;2023-09-12T12:21:47;24.60;99.90
6293;DHT22;3179;54.350;10.102;2023-09-12T12:24:14;24.60;99.90
6293;DHT22;3179;54.350;10.102;2023-09-12T12:26:41;24.60;99.90
6293;DHT22;3179;54.350;10.102;2023-09-12T12:29:11;24.70;99.90
6293;DHT22;3179;54.350;10.102;2023-09-12T12:31:39;24.70;99.90
6293;DHT22;3179;54.350;10.102;2023-09-12T12:34:06;24.70;99.90
6293;DHT22;3179;54.350;10.102;2023-09-12T12:36:33;24.70;99.90
6293;DHT22;3179;54.350;10.102;2023-09-12T12:38:59;24.80;99.90
6293;DHT22;3179;54.350;10.102;2023-09-12T12:41:27;24.80;99.90
6293;DHT22;3179;54.350;10.102;2023-09-12T12:43:56;24.80;99.90
6293;DHT22;3179;54.350;10.102;2023-09-12T12:46:27;24.80;99.90
6293;DHT22;3179;54.350;10.102;2023-09-12T12:48:54;24.70;99.90
6293;DHT22;3179;54.350;10.102;2023-09-12T12:51:22;24.70;99.90
6293;DHT22;3179;54.350;10.102;2023-09-12T12:53:51;24.70;99.90
6293;DHT22;3179;54.350;10.102;2023-09-12T12:56:18;24.70;99.90
6293;DHT22;3179;54.350;10.102;2023-09-12T12:58:50;24.80;99.90
6293;DHT22;3179;54.350;10.102;2023-09-12T13:01:17;24.80;99.90
6293;DHT22;3179;54.350;10.102;2023-09-12T13:03:45;24.80;99.90
6293;DHT22;3179;54.350;10.102;2023-09-12T13:06:12;24.80;99.90
6293;DHT22;3179;54.350;10.102;2023-09-12T13:08:41;24.80;99.90
6293;DHT22;3179;54.350;10.102;2023-09-12T13:11:09;24.80;99.90
6293;DHT22;3179;54.350;10.102;2023-09-12T13:13:36;24.80;99.90
6293;DHT22;3179;54.350;10.102;2023-09-12T13:16:03;24.80;99.90
6293;DHT22;3179;54.350;10.102;2023-09-12T13:18:31;24.80;99.90
6293;DHT22;3179;54.350;10.102;2023-09-12T13:20:59;24.80;99.90
6293;DHT22;3179;54.350;10.102;2023-09-12T13:23:27;24.80;99.90
6293;DHT22;3179;54.350;10.102;2023-09-12T13:25:53;24.80;99.90
6293;DHT22;3179;54.350;10.102;2023-09-12T13:28:20;24.80;99.90
6293;DHT22;3179;54.350;10.102;2023-09-12T13:30:49;24.90;99.90
6293;DHT22;3179;54.350;10.102;2023-09-12T13:33:19;25.10;99.90
6293;DHT22;3179;54.350;10.102;2023-09-12T13:35:47;25.30;99.90
6293;DHT22;3179;54.350;10.102;2023-09-12T13:38:16;25.40;99.90
6293;DHT22;3179;54.350;10.102;2023-09-12T13:40:45;25.50;99.90
6293;DHT22;3179;54.350;10.102;2023-09-12T13:43:15;25.50;99.90
6293;DHT22;3179;54.350;10.102;2023-09-12T13:45:42;25.60;99.90
6293;DHT22;3179;54.350;10.102;2023-09-12T13:48:09;25.60;99.90
6293;DHT22;3179;54.350;10.102;2023-09-12T13:50:37;25.80;99.90
6293;DHT22;3179;54.350;10.102;2023-09-12T13:53:04;25.90;99.90
6293;DHT22;3179;54.350;10.102;2023-09-12T13:55:33;25.80;99.90
6293;DHT22;3179;54.350;10.102;2023-09-12T13:58:01;25.80;99.90
6293;DHT22;3179;54.350;10.102;2023-09-12T14:00:29;25.60;99.90
6293;DHT22;3179;54.350;10.102;2023-09-12T14:02:55;25.50;99.90
6293;DHT22;3179;54.350;10.102;2023-09-12T14:05:23;25.40;99.90
6293;DHT22;3179;54.350;10.102;2023-09-12T14:07:50;25.30;99.90
6293;DHT22;3179;54.350;10.102;2023-09-12T14:10:17;25.20;99.90
6293;DHT22;3179;54.350;10.102;2023-09-12T14:12:45;25.30;99.90
6293;DHT22;3179;54.350;10.102;2023-09-12T14:15:12;25.40;99.90
6293;DHT22;3179;54.350;10.102;2023-09-12T14:17:40;25.40;99.90
6293;DHT22;3179;54.350;10.102;2023-09-12T14:20:08;25.40;99.90
6293;DHT22;3179;54.350;10.102;2023-09-12T14:22:35;25.20;99.90
6293;DHT22;3179;54.350;10.102;2023-09-12T14:25:02;25.10;99.90
6293;DHT22;3179;54.350;10.102;2023-09-12T14:27:29;25.10;99.90
6293;DHT22;3179;54.350;10.102;2023-09-12T14:29:57;25.10;99.90
6293;DHT22;3179;54.350;10.102;2023-09-12T14:32:25;25.00;99.90
6293;DHT22;3179;54.350;10.102;2023-09-12T14:34:52;25.00;99.90
6293;DHT22;3179;54.350;10.102;2023-09-12T14:37:18;25.00;99.90
6293;DHT22;3179;54.350;10.102;2023-09-12T14:39:45;25.00;99.90
6293;DHT22;3179;54.350;10.102;2023-09-12T14:42:12;24.90;99.90
6293;DHT22;3179;54.350;10.102;2023-09-12T14:44:39;25.00;99.90
6293;DHT22;3179;54.350;10.102;2023-09-12T14:47:07;25.10;99.90
6293;DHT22;3179;54.350;10.102;2023-09-12T14:49:34;25.20;99.90
6293;DHT22;3179;54.350;10.102;2023-09-12T14:52:01;25.20;99.90
6293;DHT22;3179;54.350;10.102;2023-09-12T14:54:28;25.20;99.90
6293;DHT22;3179;54.350;10.102;2023-09-12T14:56:54;25.10;99.90
6293;DHT22;3179;54.350;10.102;2023-09-12T14:59:21;25.00;99.90
6293;DHT22;3179;54.350;10.102;2023-09-12T15:01:48;24.90;99.90
6293;DHT22;3179;54.350;10.102;2023-09-12T15:04:16;24.90;99.90
6293;DHT22;3179;54.350;10.102;2023-09-12T15:06:43;24.80;99.90
6293;DHT22;3179;54.350;10.102;2023-09-12T15:09:09;24.80;99.90
6293;DHT22;3179;54.350;10.102;2023-09-12T15:11:36;24.80;99.90
6293;DHT22;3179;54.350;10.102;2023-09-12T15:14:03;24.80;99.90
6293;DHT22;3179;54.350;10.102;2023-09-12T15:16:30;24.90;99.90
6293;DHT22;3179;54.350;10.102;2023-09-12T15:19:00;24.90;99.90
6293;DHT22;3179;54.350;10.102;2023-09-12T15:21:29;24.90;99.90
6293;DHT22;3179;54.350;10.102;2023-09-12T15:23:56;25.00;99.90
6293;DHT22;3179;54.350;10.102;2023-09-12T15:26:23;25.00;99.90
6293;DHT22;3179;54.350;10.102;2023-09-12T15:28:50;25.00;99.90
6293;DHT22;3179;54.350;10.102;2023-09-12T15:31:16;25.00;99.90
6293;DHT22;3179;54.350;10.102;2023-09-12T15:33:44;25.00;99.90
6293;DHT22;3179;54.350;10.102;2023-09-12T15:36:11;25.00;99.90
6293;DHT22;3179;54.350;10.102;2023-09-12T15:38:39;25.00;99.90
6293;DHT22;3179;54.350;10.102;2023-09-12T15:41:06;25.00;99.90
6293;DHT22;3179;54.350;10.102;2023-09-12T15:43:34;25.00;99.90
6293;DHT22;3179;54.350;10.102;2023-09-12T15:46:01;24.90;99.90
6293;DHT22;3179;54.350;10.102;2023-09-12T15:48:28;24.90;99.90
6293;DHT22;3179;54.350;10.102;2023-09-12T15:50:55;24.90;99.90